Time;durP1;ratioP1;P1;durP2;ratioP2;P2;SDS_P1;SDS_P2;PMS_P1;PMS_P2;Temp;Humidity;BMP_temperature;BMP_pressure;BME280_temperature;BME280_humidity;BME280_pressure;Samples;Min_cycle;Max_cycle;Signal;HPM_P1;HPM_P2
2021/10/10 00:00:44;;;;;;;21.65;14.00;;;6.60;99.90;;;;;;4925363;28;20682;-85
2021/10/10 00:03:10;;;;;;;19.83;12.68;;;6.50;99.90;;;;;;4934181;28;20036;-86
2021/10/10 00:05:35;;;;;;;23.75;13.75;;;6.50;99.90;;;;;;4919433;28;20551;-86
2021/10/10 00:08:01;;;;;;;23.85;15.68;;;6.50;99.90;;;;;;4919688;28;20558;-86
2021/10/10 00:10:26;;;;;;;24.77;15.20;;;6.40;99.90;;;;;;4910902;28;20035;-86
2021/10/10 00:12:52;;;;;;;24.83;14.02;;;6.40;99.90;;;;;;4914578;28;20028;-86
2021/10/10 00:15:17;;;;;;;28.45;15.68;;;6.50;99.90;;;;;;4911521;28;20393;-84
2021/10/10 00:17:43;;;;;;;20.08;14.77;;;6.30;99.90;;;;;;4923874;28;20515;-85
2021/10/10 00:20:09;;;;;;;25.70;15.98;;;6.40;99.90;;;;;;4924607;28;20519;-86
2021/10/10 00:22:35;;;;;;;20.52;14.23;;;6.40;99.90;;;;;;4919897;28;20051;-86
2021/10/10 00:25:00;;;;;;;25.60;14.27;;;6.60;99.90;;;;;;4910587;28;20024;-86
2021/10/10 00:27:26;;;;;;;21.40;14.27;;;6.60;99.90;;;;;;4910816;28;20403;-86
2021/10/10 00:29:51;;;;;;;20.65;13.38;;;6.60;99.90;;;;;;4914889;28;20457;-86
2021/10/10 00:32:17;;;;;;;23.83;14.52;;;6.40;99.90;;;;;;4924736;28;20500;-87
2021/10/10 00:34:43;;;;;;;24.95;15.57;;;6.40;99.90;;;;;;4943251;28;20032;-86
2021/10/10 00:37:08;;;;;;;20.02;13.90;;;6.20;99.90;;;;;;4928339;28;20114;-86
2021/10/10 00:39:34;;;;;;;18.05;14.05;;;6.10;99.90;;;;;;4918839;28;20106;-85
2021/10/10 00:41:59;;;;;;;27.13;15.00;;;6.10;99.90;;;;;;4911647;28;20056;-87
2021/10/10 00:44:25;;;;;;;21.13;14.50;;;5.90;99.90;;;;;;4896567;28;20695;-86
2021/10/10 00:46:51;;;;;;;20.17;13.48;;;5.90;99.90;;;;;;4931110;28;20408;-86
2021/10/10 00:49:17;;;;;;;21.70;14.55;;;5.90;99.90;;;;;;4907442;28;20040;-86
2021/10/10 00:51:42;;;;;;;22.67;15.18;;;5.80;99.90;;;;;;4906296;28;20036;-86
2021/10/10 00:54:08;;;;;;;26.95;15.68;;;5.90;99.90;;;;;;4909223;28;20056;-86
2021/10/10 00:56:33;;;;;;;23.10;14.52;;;5.90;99.90;;;;;;4923099;28;20025;-86
2021/10/10 00:58:59;;;;;;;22.10;15.02;;;5.90;99.90;;;;;;4926841;28;20088;-86
2021/10/10 01:01:26;;;;;;;23.42;15.48;;;6.10;99.90;;;;;;4923926;28;20437;-86
2021/10/10 01:03:52;;;;;;;23.63;14.77;;;6.00;99.90;;;;;;4930210;28;20115;-86
2021/10/10 01:06:17;;;;;;;23.13;15.82;;;5.90;99.90;;;;;;4942929;28;20540;-86
2021/10/10 01:08:43;;;;;;;28.65;16.30;;;5.70;99.90;;;;;;4948594;28;20077;-86
2021/10/10 01:11:08;;;;;;;25.45;15.95;;;5.60;99.90;;;;;;4936049;28;20106;-86
2021/10/10 01:13:34;;;;;;;23.13;16.20;;;5.50;99.90;;;;;;4923608;28;20066;-86
2021/10/10 01:16:00;;;;;;;24.95;16.23;;;5.50;99.90;;;;;;4921163;28;20028;-87
2021/10/10 01:18:25;;;;;;;23.40;16.10;;;5.50;99.90;;;;;;4907814;28;20039;-85
2021/10/10 01:20:52;;;;;;;25.75;16.33;;;5.70;99.90;;;;;;4948779;28;20046;-86
2021/10/10 01:23:17;;;;;;;25.88;15.98;;;5.90;99.90;;;;;;4922933;28;20749;-86
2021/10/10 01:25:43;;;;;;;23.90;15.52;;;5.80;99.90;;;;;;4921432;28;20036;-86
2021/10/10 01:28:08;;;;;;;24.50;15.55;;;5.80;99.90;;;;;;4912000;28;20602;-86
2021/10/10 01:30:34;;;;;;;28.08;16.23;;;5.80;99.90;;;;;;4930438;28;20455;-86
2021/10/10 01:33:01;;;;;;;21.45;15.15;;;5.70;99.90;;;;;;4919551;28;20054;-86
2021/10/10 01:35:27;;;;;;;24.23;15.55;;;5.60;99.90;;;;;;4932031;28;20395;-86
2021/10/10 01:37:52;;;;;;;23.70;15.85;;;5.70;99.90;;;;;;4925281;28;20036;-86
2021/10/10 01:40:18;;;;;;;28.65;17.00;;;5.60;99.90;;;;;;4943397;28;20063;-86
2021/10/10 01:42:43;;;;;;;23.55;16.95;;;5.50;99.90;;;;;;4946867;28;20035;-86
2021/10/10 01:45:21;;;;;;;22.48;15.65;;;5.50;99.90;;;;;;4921417;28;20032;-87
2021/10/10 01:47:47;;;;;;;26.77;16.23;;;5.40;99.90;;;;;;4916194;28;20031;-87
2021/10/10 01:50:12;;;;;;;22.83;14.93;;;5.40;99.90;;;;;;4936404;28;20034;-85
2021/10/10 01:52:40;;;;;;;24.25;14.85;;;5.30;99.90;;;;;;4929446;28;20039;-87
2021/10/10 01:55:06;;;;;;;22.30;14.98;;;5.20;99.90;;;;;;4905252;28;20452;-86
2021/10/10 01:57:32;;;;;;;25.08;15.30;;;5.20;99.90;;;;;;4914631;28;20028;-86
2021/10/10 01:59:57;;;;;;;19.42;13.63;;;5.10;99.90;;;;;;4935436;28;20119;-87
2021/10/10 02:02:23;;;;;;;21.00;13.82;;;5.10;99.90;;;;;;4929012;28;20032;-86
2021/10/10 02:04:48;;;;;;;24.33;14.50;;;5.20;99.90;;;;;;4926197;28;20040;-86
2021/10/10 02:07:14;;;;;;;23.58;13.85;;;5.20;99.90;;;;;;4904289;28;20028;-86
2021/10/10 02:09:42;;;;;;;20.38;12.48;;;5.10;99.90;;;;;;4940909;28;20897;-86
2021/10/10 02:12:07;;;;;;;19.80;12.95;;;5.20;99.90;;;;;;4930328;28;20185;-85
2021/10/10 02:14:34;;;;;;;21.73;13.18;;;5.10;99.90;;;;;;4918813;28;20158;-86
2021/10/10 02:17:00;;;;;;;17.75;12.52;;;5.20;99.90;;;;;;4918520;28;20032;-87
2021/10/10 02:19:26;;;;;;;21.33;12.88;;;5.20;99.90;;;;;;4898299;28;20047;-87
2021/10/10 02:21:51;;;;;;;19.73;12.70;;;4.90;99.90;;;;;;4903920;29;20237;-87
2021/10/10 02:24:17;;;;;;;16.65;12.15;;;5.00;99.90;;;;;;4920424;28;20552;-86
2021/10/10 02:26:42;;;;;;;17.20;12.77;;;5.10;99.90;;;;;;4919643;28;20130;-87
2021/10/10 02:29:08;;;;;;;17.75;11.70;;;5.10;99.90;;;;;;4927954;28;20052;-87
2021/10/10 02:31:34;;;;;;;16.38;11.60;;;5.20;99.90;;;;;;4934794;28;20115;-87
2021/10/10 02:33:59;;;;;;;16.42;11.70;;;4.90;99.90;;;;;;4920486;28;20047;-87
2021/10/10 02:36:25;;;;;;;15.85;11.15;;;4.80;99.90;;;;;;4904177;28;20826;-86
2021/10/10 02:38:50;;;;;;;16.20;10.98;;;4.70;99.90;;;;;;4923710;28;20059;-84
2021/10/10 02:41:16;;;;;;;17.45;11.15;;;4.80;99.90;;;;;;4964102;28;20044;-87
2021/10/10 02:43:41;;;;;;;16.45;11.40;;;4.70;99.90;;;;;;4927978;28;20040;-87
2021/10/10 02:46:07;;;;;;;17.05;11.52;;;4.70;99.90;;;;;;4932038;28;20035;-86
2021/10/10 02:48:32;;;;;;;19.63;12.07;;;4.80;99.90;;;;;;4904993;28;20036;-86
2021/10/10 02:50:58;;;;;;;16.48;12.10;;;4.70;99.90;;;;;;4913285;28;20039;-86
2021/10/10 02:53:23;;;;;;;16.33;12.02;;;4.60;99.90;;;;;;4918377;28;20416;-85
2021/10/10 02:55:49;;;;;;;16.27;11.35;;;4.60;99.90;;;;;;4913728;28;20063;-86
2021/10/10 02:58:14;;;;;;;17.95;11.98;;;4.60;99.90;;;;;;4930567;28;20040;-87
2021/10/10 03:00:40;;;;;;;16.77;12.40;;;4.60;99.90;;;;;;4949902;28;20083;-87
2021/10/10 03:03:06;;;;;;;17.70;11.75;;;4.40;99.90;;;;;;4907497;29;20032;-86
2021/10/10 03:05:31;;;;;;;15.02;10.95;;;4.30;99.90;;;;;;4947701;28;20024;-84
2021/10/10 03:07:57;;;;;;;20.33;12.30;;;4.30;99.90;;;;;;4919179;28;20043;-87
2021/10/10 03:10:22;;;;;;;18.77;11.88;;;4.30;99.90;;;;;;4916522;28;20111;-87
2021/10/10 03:12:48;;;;;;;18.05;12.23;;;4.30;99.90;;;;;;4928219;28;20040;-86
2021/10/10 03:15:14;;;;;;;15.25;11.15;;;4.20;99.90;;;;;;4940263;28;20404;-88
2021/10/10 03:17:39;;;;;;;19.00;12.55;;;4.30;99.90;;;;;;4944472;28;20139;-87
2021/10/10 03:20:05;;;;;;;16.92;11.30;;;4.20;99.90;;;;;;4892747;28;20107;-86
2021/10/10 03:22:31;;;;;;;15.98;11.43;;;4.20;99.90;;;;;;4899610;28;20031;-87
2021/10/10 03:24:56;;;;;;;15.85;11.70;;;4.30;99.90;;;;;;4906755;28;20024;-86
2021/10/10 03:27:25;;;;;;;16.92;11.18;;;4.40;99.90;;;;;;4906751;28;20118;-86
2021/10/10 03:29:51;;;;;;;15.70;11.13;;;4.30;99.90;;;;;;4926023;28;20547;-86
2021/10/10 03:32:17;;;;;;;18.48;12.27;;;4.30;99.90;;;;;;4926237;28;20496;-87
2021/10/10 03:34:42;;;;;;;16.02;10.63;;;4.20;99.90;;;;;;4924050;28;20043;-86
2021/10/10 03:37:08;;;;;;;16.05;11.18;;;4.40;99.90;;;;;;4920048;28;20036;-87
2021/10/10 03:39:33;;;;;;;17.90;10.90;;;4.30;99.90;;;;;;4943297;28;20038;-86
2021/10/10 03:41:59;;;;;;;17.25;11.45;;;4.10;99.90;;;;;;4923084;28;20483;-87
2021/10/10 03:44:25;;;;;;;18.98;10.80;;;4.10;99.90;;;;;;4907411;28;20028;-86
2021/10/10 03:46:50;;;;;;;17.02;11.73;;;4.10;99.90;;;;;;4905304;29;20040;-86
2021/10/10 03:49:16;;;;;;;15.65;11.20;;;4.00;99.90;;;;;;4923966;28;20673;-87
2021/10/10 03:51:41;;;;;;;21.55;11.85;;;3.90;99.90;;;;;;4951774;28;20180;-87
2021/10/10 03:56:47;;;;;;;18.02;11.90;;;3.90;99.90;;;;;;4914294;28;20044;-87
2021/10/10 03:59:13;;;;;;;19.33;11.23;;;3.90;99.90;;;;;;4926426;28;20123;-87
2021/10/10 04:01:40;;;;;;;15.40;11.20;;;3.90;99.90;;;;;;4934632;28;20735;-87
2021/10/10 04:04:05;;;;;;;18.65;11.93;;;3.90;99.90;;;;;;4906520;28;20528;-88
2021/10/10 04:06:31;;;;;;;18.10;11.80;;;3.80;99.90;;;;;;4910910;28;20051;-87
2021/10/10 04:08:56;;;;;;;20.50;12.25;;;3.80;99.90;;;;;;4898949;28;20060;-84
2021/10/10 04:11:22;;;;;;;15.20;11.88;;;3.70;99.90;;;;;;4929617;29;20475;-88
2021/10/10 04:13:47;;;;;;;18.88;11.45;;;3.80;99.90;;;;;;4903549;28;20047;-87
2021/10/10 04:16:13;;;;;;;17.85;12.43;;;3.80;99.90;;;;;;4921378;28;20504;-88
2021/10/10 04:18:39;;;;;;;18.30;12.32;;;3.60;99.90;;;;;;4933852;28;20493;-87
2021/10/10 04:21:05;;;;;;;16.13;11.50;;;3.50;99.90;;;;;;4909970;28;20031;-88
2021/10/10 04:23:31;;;;;;;20.35;11.90;;;3.50;99.90;;;;;;4923866;28;20649;-88
2021/10/10 04:25:57;;;;;;;16.23;11.80;;;3.50;99.90;;;;;;4917208;28;20738;-87
2021/10/10 04:28:22;;;;;;;20.88;11.75;;;3.40;99.90;;;;;;4916133;28;20066;-89
2021/10/10 04:30:48;;;;;;;17.33;11.43;;;3.40;99.90;;;;;;4929481;28;20082;-87
2021/10/10 04:33:13;;;;;;;17.17;11.27;;;3.40;99.90;;;;;;4917092;28;20040;-90
2021/10/10 04:35:39;;;;;;;17.15;11.57;;;3.40;99.90;;;;;;4930591;28;20036;-87
2021/10/10 04:38:04;;;;;;;18.45;12.07;;;3.40;99.90;;;;;;4933734;28;20111;-88
2021/10/10 04:40:30;;;;;;;18.70;11.20;;;3.40;99.90;;;;;;4930452;28;20060;-87
2021/10/10 04:42:55;;;;;;;21.13;11.75;;;3.40;99.90;;;;;;4929557;28;20123;-88
2021/10/10 04:45:21;;;;;;;18.95;12.13;;;3.50;99.90;;;;;;4904699;28;20497;-86
2021/10/10 04:47:47;;;;;;;18.23;11.23;;;3.40;99.90;;;;;;4915477;28;20024;-87
2021/10/10 04:50:12;;;;;;;18.20;11.50;;;3.50;99.90;;;;;;4923966;28;20031;-87
2021/10/10 04:52:38;;;;;;;15.52;11.32;;;3.50;99.90;;;;;;4943326;28;20036;-87
2021/10/10 04:55:04;;;;;;;18.30;11.80;;;3.50;99.90;;;;;;4929154;28;20090;-87
2021/10/10 04:57:30;;;;;;;17.83;11.55;;;3.40;99.90;;;;;;4914908;28;20044;-87
2021/10/10 04:59:55;;;;;;;19.48;12.43;;;3.40;99.90;;;;;;4933319;28;20038;-87
2021/10/10 05:02:21;;;;;;;19.95;11.00;;;3.30;99.90;;;;;;4935945;28;20470;-86
2021/10/10 05:04:49;;;;;;;21.88;12.18;;;3.30;99.90;;;;;;4930132;28;20032;-85
2021/10/10 05:07:14;;;;;;;17.65;11.18;;;3.20;99.90;;;;;;4954117;28;20517;-86
2021/10/10 05:09:40;;;;;;;18.50;11.82;;;3.20;99.90;;;;;;4919396;28;20118;-87
2021/10/10 05:12:05;;;;;;;23.83;12.13;;;3.20;99.90;;;;;;4916600;28;20492;-87
2021/10/10 05:14:31;;;;;;;19.80;12.00;;;3.20;99.90;;;;;;4927511;28;20040;-87
2021/10/10 05:16:58;;;;;;;20.10;11.32;;;3.20;99.90;;;;;;4934131;28;20110;-87
2021/10/10 05:19:24;;;;;;;17.92;12.50;;;3.20;99.90;;;;;;4906614;28;20047;-86
2021/10/10 05:21:49;;;;;;;17.17;11.85;;;3.20;99.90;;;;;;4914259;28;20432;-87
2021/10/10 05:24:15;;;;;;;16.98;11.10;;;3.30;99.90;;;;;;4932696;28;20475;-88
2021/10/10 05:26:40;;;;;;;20.58;12.32;;;3.30;99.90;;;;;;4938427;28;20032;-88
2021/10/10 05:29:06;;;;;;;19.77;12.18;;;3.20;99.90;;;;;;4922879;28;20040;-87
2021/10/10 05:31:31;;;;;;;20.05;11.95;;;3.20;99.90;;;;;;4900037;28;20036;-87
2021/10/10 05:33:57;;;;;;;18.17;11.55;;;3.20;99.90;;;;;;4907627;29;20044;-87
2021/10/10 05:36:23;;;;;;;21.42;11.32;;;3.20;99.90;;;;;;4921428;28;20040;-86
2021/10/10 05:38:48;;;;;;;22.63;12.80;;;3.20;99.90;;;;;;4916262;28;20040;-87
2021/10/10 05:41:14;;;;;;;22.75;12.15;;;3.30;99.90;;;;;;4928526;28;20043;-87
2021/10/10 05:43:40;;;;;;;20.52;12.13;;;3.30;99.90;;;;;;4935851;28;20453;-87
2021/10/10 05:46:05;;;;;;;18.20;11.60;;;3.30;99.90;;;;;;4915307;28;20036;-88
2021/10/10 05:48:31;;;;;;;20.65;12.18;;;3.30;99.90;;;;;;4914223;28;20166;-87
2021/10/10 05:50:56;;;;;;;21.65;11.80;;;3.20;99.90;;;;;;4904257;28;20042;-87
2021/10/10 05:53:23;;;;;;;17.67;12.02;;;3.30;99.90;;;;;;4913772;28;20115;-86
2021/10/10 05:55:49;;;;;;;21.25;13.32;;;3.20;99.90;;;;;;4931482;28;20519;-87
2021/10/10 05:58:20;;;;;;;16.20;12.25;;;3.30;99.90;;;;;;4949985;28;20047;-88
2021/10/10 06:00:46;;;;;;;17.63;12.73;;;3.30;99.90;;;;;;4942522;28;20047;-87
2021/10/10 06:03:11;;;;;;;15.55;9.90;;;3.30;99.90;;;;;;4949961;28;20765;-87
2021/10/10 06:05:37;;;;;;;17.83;12.57;;;3.40;99.90;;;;;;4942997;28;20133;-87
2021/10/10 06:08:03;;;;;;;14.30;8.40;;;3.40;99.90;;;;;;4940942;28;20052;-86
2021/10/10 06:10:29;;;;;;;13.18;8.77;;;3.50;99.90;;;;;;4928530;28;20028;-87
2021/10/10 06:12:54;;;;;;;16.48;10.30;;;3.50;99.90;;;;;;4919939;28;20028;-87
2021/10/10 06:15:20;;;;;;;17.38;10.52;;;3.50;99.90;;;;;;4906867;28;20032;-88
2021/10/10 06:17:45;;;;;;;15.02;10.52;;;3.50;99.90;;;;;;4918107;28;20111;-87
2021/10/10 06:20:11;;;;;;;14.20;10.38;;;3.50;99.90;;;;;;4910283;28;20055;-87
2021/10/10 06:22:37;;;;;;;16.45;10.68;;;3.50;99.90;;;;;;4929348;28;20115;-87
2021/10/10 06:25:03;;;;;;;18.10;10.93;;;3.50;99.90;;;;;;4915049;28;20090;-87
2021/10/10 06:27:29;;;;;;;22.33;11.82;;;3.50;99.90;;;;;;4912319;28;20028;-87
2021/10/10 06:29:55;;;;;;;19.92;11.50;;;3.40;99.90;;;;;;4926473;28;20082;-87
2021/10/10 06:32:20;;;;;;;20.83;12.43;;;3.40;99.90;;;;;;4898541;28;20062;-87
2021/10/10 06:34:46;;;;;;;20.60;12.75;;;3.40;99.90;;;;;;4910967;28;20043;-88
2021/10/10 06:37:11;;;;;;;19.95;13.15;;;3.40;99.90;;;;;;4921246;28;20039;-88
2021/10/10 06:39:37;;;;;;;25.10;12.95;;;3.50;99.90;;;;;;4911749;28;20530;-87
2021/10/10 06:42:03;;;;;;;22.98;13.18;;;3.60;99.90;;;;;;4917358;28;20118;-87
2021/10/10 06:44:29;;;;;;;19.95;12.10;;;3.60;99.90;;;;;;4917256;28;20052;-87
2021/10/10 06:46:55;;;;;;;20.20;13.20;;;3.60;99.90;;;;;;4908958;28;20039;-87
2021/10/10 06:49:21;;;;;;;18.38;11.50;;;3.70;99.90;;;;;;4935671;28;20096;-87
2021/10/10 06:51:46;;;;;;;17.63;12.02;;;3.90;99.90;;;;;;4929629;28;20063;-86
2021/10/10 06:54:12;;;;;;;20.88;12.48;;;3.80;99.90;;;;;;4915646;28;20044;-85
2021/10/10 06:56:38;;;;;;;14.65;10.00;;;3.90;99.90;;;;;;4921113;28;20047;-85
2021/10/10 06:59:03;;;;;;;23.25;13.07;;;3.90;99.90;;;;;;4915794;28;20062;-86
2021/10/10 07:01:30;;;;;;;13.93;9.45;;;4.10;99.90;;;;;;4930915;28;20484;-86
2021/10/10 07:04:01;;;;;;;17.30;11.60;;;4.40;99.90;;;;;;4930485;28;20441;-86
2021/10/10 07:06:27;;;;;;;17.25;9.65;;;4.50;99.90;;;;;;4929047;28;20040;-86
2021/10/10 07:08:53;;;;;;;16.10;10.85;;;4.60;99.90;;;;;;4925678;28;20559;-86
2021/10/10 07:11:19;;;;;;;21.40;12.68;;;4.80;99.90;;;;;;4903115;28;20519;-86
2021/10/10 07:13:47;;;;;;;17.13;12.18;;;4.90;99.90;;;;;;4917957;28;20074;-86
2021/10/10 07:16:13;;;;;;;18.95;12.07;;;5.00;99.90;;;;;;4921797;28;20036;-86
2021/10/10 07:18:48;;;;;;;16.48;10.75;;;5.10;99.90;;;;;;4935163;28;20036;-86
2021/10/10 07:21:22;;;;;;;18.85;12.18;;;5.10;99.90;;;;;;4900257;28;20397;-86
2021/10/10 07:26:20;;;;;;;17.85;11.57;;;5.50;99.90;;;;;;4912044;28;20040;-86
2021/10/10 07:28:46;;;;;;;17.17;12.60;;;5.60;99.90;;;;;;4898182;28;20055;-86
2021/10/10 07:31:11;;;;;;;28.60;13.93;;;5.60;99.90;;;;;;4924797;29;20032;-85
2021/10/10 07:33:37;;;;;;;24.75;16.77;;;5.40;99.90;;;;;;4932321;28;20082;-86
2021/10/10 07:36:02;;;;;;;28.67;17.77;;;5.20;99.90;;;;;;4895261;28;20032;-86
2021/10/10 07:38:28;;;;;;;28.00;16.50;;;5.30;99.90;;;;;;4912910;28;20496;-86
2021/10/10 07:40:53;;;;;;;25.83;15.57;;;5.60;99.90;;;;;;4898577;28;20028;-85
2021/10/10 07:43:21;;;;;;;17.33;11.43;;;6.10;99.90;;;;;;4906757;28;20044;-86
2021/10/10 07:45:47;;;;;;;17.88;11.68;;;6.40;99.90;;;;;;4941240;28;20404;-86
2021/10/10 07:48:13;;;;;;;22.30;12.95;;;6.70;99.90;;;;;;4929489;28;20025;-85
2021/10/10 07:50:38;;;;;;;20.02;12.73;;;6.80;99.90;;;;;;4902843;28;20731;-85
2021/10/10 07:53:05;;;;;;;18.05;11.20;;;7.20;99.90;;;;;;4899501;29;20028;-86
2021/10/10 07:55:31;;;;;;;20.45;13.32;;;7.40;99.90;;;;;;4899957;28;20480;-85
2021/10/10 07:57:57;;;;;;;23.00;13.82;;;7.40;99.90;;;;;;4939121;28;20033;-86
2021/10/10 08:00:23;;;;;;;21.98;14.38;;;7.50;99.90;;;;;;4901011;28;20120;-86
2021/10/10 08:02:49;;;;;;;23.23;16.00;;;7.30;99.90;;;;;;4904691;28;20115;-85
2021/10/10 08:05:16;;;;;;;24.83;16.73;;;7.00;99.90;;;;;;4943277;28;20024;-85
2021/10/10 08:07:41;;;;;;;22.98;16.85;;;7.00;99.90;;;;;;4921477;28;20131;-85
2021/10/10 08:10:07;;;;;;;25.80;18.60;;;6.90;99.90;;;;;;4915425;28;20091;-84
2021/10/10 08:12:33;;;;;;;29.42;18.45;;;6.90;99.90;;;;;;4902345;28;20127;-85
2021/10/10 08:14:58;;;;;;;23.52;16.73;;;7.00;99.90;;;;;;4946812;28;20581;-85
2021/10/10 08:17:24;;;;;;;26.30;17.10;;;7.30;99.90;;;;;;4919173;28;20071;-85
2021/10/10 08:19:49;;;;;;;15.32;11.15;;;7.90;99.90;;;;;;4906471;28;20044;-85
2021/10/10 08:22:16;;;;;;;19.10;11.88;;;8.50;99.90;;;;;;4934290;28;20124;-85
2021/10/10 08:24:42;;;;;;;22.45;15.75;;;8.80;99.90;;;;;;4941342;28;20032;-85
2021/10/10 08:27:07;;;;;;;22.17;16.33;;;8.90;99.90;;;;;;4927915;28;20039;-85
2021/10/10 08:29:33;;;;;;;25.92;17.65;;;8.40;99.90;;;;;;4914085;28;20134;-85
2021/10/10 08:31:59;;;;;;;27.60;17.40;;;8.40;99.90;;;;;;4931464;28;21168;-85
2021/10/10 08:34:24;;;;;;;27.25;16.50;;;8.40;99.90;;;;;;4933178;28;20059;-85
2021/10/10 08:36:50;;;;;;;23.10;14.05;;;8.60;99.90;;;;;;4931393;28;20051;-85
2021/10/10 08:39:22;;;;;;;22.58;14.68;;;9.00;99.90;;;;;;4927669;28;20086;-85
2021/10/10 08:41:48;;;;;;;23.23;15.57;;;9.30;99.90;;;;;;4934344;28;20463;-85
2021/10/10 08:44:17;;;;;;;16.52;11.45;;;9.50;99.90;;;;;;4904523;28;20051;-85
2021/10/10 08:46:43;;;;;;;16.38;11.65;;;9.60;99.90;;;;;;4945375;28;20044;-85
2021/10/10 08:49:08;;;;;;;22.50;14.88;;;10.10;99.90;;;;;;4914743;28;20093;-85
2021/10/10 08:51:35;;;;;;;23.60;12.77;;;10.40;99.50;;;;;;4917310;28;20540;-85
2021/10/10 08:54:00;;;;;;;15.20;10.73;;;10.40;99.90;;;;;;4926725;28;20496;-84
2021/10/10 08:56:26;;;;;;;12.40;9.95;;;10.80;99.60;;;;;;4911860;28;20178;-86
2021/10/10 08:58:51;;;;;;;16.30;10.80;;;11.40;99.90;;;;;;4921084;28;20029;-85
2021/10/10 09:01:26;;;;;;;16.38;10.50;;;11.50;99.60;;;;;;4913146;28;20040;-85
2021/10/10 09:03:54;;;;;;;13.35;9.55;;;11.80;98.50;;;;;;4927824;28;20496;-85
2021/10/10 09:06:20;;;;;;;13.02;10.15;;;12.00;98.90;;;;;;4925385;28;20067;-85
2021/10/10 09:08:46;;;;;;;19.88;11.23;;;12.20;98.60;;;;;;4933756;28;20126;-85
2021/10/10 09:11:11;;;;;;;16.17;10.68;;;12.50;98.60;;;;;;4915236;28;20040;-86
2021/10/10 09:13:39;;;;;;;13.20;9.65;;;12.50;98.70;;;;;;4927198;28;20044;-85
2021/10/10 09:16:06;;;;;;;12.20;9.15;;;12.80;98.50;;;;;;4928604;28;20503;-85
2021/10/10 09:18:39;;;;;;;12.60;8.20;;;13.50;98.40;;;;;;4930039;28;20032;-86
2021/10/10 09:21:19;;;;;;;17.88;9.50;;;13.70;97.40;;;;;;4911807;28;20058;-86
2021/10/10 09:23:47;;;;;;;18.63;8.93;;;13.40;97.80;;;;;;4938170;28;20035;-86
2021/10/10 09:26:14;;;;;;;12.27;8.77;;;13.60;98.00;;;;;;4925696;28;20043;-85
2021/10/10 09:28:39;;;;;;;15.35;9.23;;;14.10;96.50;;;;;;4931223;28;20501;-86
2021/10/10 09:31:06;;;;;;;12.70;8.48;;;14.20;96.90;;;;;;4931063;28;20035;-86
2021/10/10 09:33:55;;;;;;;11.07;8.13;;;14.20;96.50;;;;;;4931088;28;20051;-86
2021/10/10 09:36:26;;;;;;;11.05;8.00;;;14.30;97.20;;;;;;4942808;28;20024;-86
2021/10/10 09:41:28;;;;;;;14.68;8.20;;;14.90;95.20;;;;;;4927236;28;20056;-86
2021/10/10 09:43:59;;;;;;;14.55;9.40;;;14.90;95.50;;;;;;4927627;28;20043;-85
2021/10/10 09:46:25;;;;;;;11.82;7.65;;;14.40;96.40;;;;;;4944774;28;20024;-86
2021/10/10 09:48:51;;;;;;;10.88;7.85;;;14.70;96.40;;;;;;4945141;28;20523;-86
2021/10/10 09:51:33;;;;;;;13.40;8.40;;;14.80;97.40;;;;;;4913700;28;20032;-86
2021/10/10 09:54:06;;;;;;;14.00;8.13;;;15.30;96.30;;;;;;4947157;28;20516;-86
2021/10/10 09:56:35;;;;;;;12.10;7.72;;;15.90;95.80;;;;;;4943154;28;20507;-86
2021/10/10 09:59:00;;;;;;;15.90;9.35;;;15.40;96.40;;;;;;4931625;28;20071;-86
2021/10/10 10:01:29;;;;;;;13.05;7.68;;;15.60;96.90;;;;;;4943178;28;20063;-86
2021/10/10 10:03:57;;;;;;;8.90;7.22;;;15.40;96.60;;;;;;4922288;28;20036;-86
2021/10/10 10:06:23;;;;;;;8.00;6.25;;;14.90;97.50;;;;;;4941118;28;20035;-86
2021/10/10 10:08:49;;;;;;;14.50;7.97;;;15.40;97.10;;;;;;4931063;28;20393;-86
2021/10/10 10:11:38;;;;;;;12.30;8.10;;;15.70;96.00;;;;;;4899998;28;20043;-86
2021/10/10 10:14:09;;;;;;;11.18;7.40;;;16.20;96.00;;;;;;4927930;28;20075;-86
2021/10/10 10:16:40;;;;;;;11.68;7.90;;;16.60;94.70;;;;;;4946528;28;20327;-86
2021/10/10 10:19:09;;;;;;;12.93;7.60;;;16.30;95.60;;;;;;4908959;28;20520;-86
2021/10/10 10:21:34;;;;;;;12.50;8.77;;;16.10;95.30;;;;;;4922616;28;20472;-86
2021/10/10 10:24:39;;;;;;;13.18;7.15;;;15.80;95.80;;;;;;4909648;28;20035;-86
2021/10/10 10:27:46;;;;;;;11.20;6.93;;;16.10;96.30;;;;;;4931679;28;20399;-86
2021/10/10 10:30:12;;;;;;;9.65;6.70;;;17.40;93.90;;;;;;4908123;29;20123;-85
2021/10/10 10:32:37;;;;;;;10.18;6.85;;;17.40;94.10;;;;;;4926309;28;20126;-86
2021/10/10 10:35:19;;;;;;;11.68;7.43;;;17.60;94.10;;;;;;4913492;28;20519;-87
2021/10/10 10:37:45;;;;;;;11.18;7.70;;;16.90;95.40;;;;;;4918762;28;20036;-86
2021/10/10 10:40:19;;;;;;;13.32;8.13;;;17.50;94.60;;;;;;4937455;28;20032;-85
2021/10/10 10:42:48;;;;;;;13.13;7.40;;;17.30;95.00;;;;;;4944683;28;20396;-85
2021/10/10 10:45:17;;;;;;;10.60;6.72;;;18.10;95.60;;;;;;4902769;28;20119;-85
2021/10/10 10:47:43;;;;;;;10.60;7.55;;;17.20;95.30;;;;;;4948226;28;20062;-85
2021/10/10 10:50:28;;;;;;;9.15;6.47;;;18.20;92.80;;;;;;4894921;28;20032;-85
2021/10/10 10:53:08;;;;;;;9.57;6.63;;;18.00;93.80;;;;;;4930000;28;20042;-86
2021/10/10 10:55:38;;;;;;;8.43;6.68;;;18.30;93.20;;;;;;4930825;28;20118;-86
2021/10/10 10:58:13;;;;;;;16.40;7.40;;;18.70;92.40;;;;;;4902929;28;20036;-87
2021/10/10 11:00:45;;;;;;;8.95;6.45;;;19.50;90.40;;;;;;4908527;28;20032;-85
2021/10/10 11:03:23;;;;;;;10.73;6.80;;;19.30;92.10;;;;;;4925697;28;20032;-85
2021/10/10 11:05:57;;;;;;;7.75;5.90;;;19.70;90.40;;;;;;4957282;28;20036;-85
2021/10/10 11:08:22;;;;;;;8.20;5.70;;;19.60;90.70;;;;;;4920760;28;20029;-85
2021/10/10 11:11:02;;;;;;;9.45;6.10;;;19.70;90.60;;;;;;4929481;28;20042;-85
2021/10/10 11:13:34;;;;;;;8.65;6.88;;;19.60;91.10;;;;;;4926383;28;20040;-85
2021/10/10 11:16:10;;;;;;;10.13;6.85;;;20.10;90.10;;;;;;4915966;28;20119;-86
2021/10/10 11:18:36;;;;;;;12.55;6.90;;;19.90;90.20;;;;;;4926529;28;20078;-85
2021/10/10 11:21:06;;;;;;;9.68;7.05;;;19.60;90.90;;;;;;4927980;28;20130;-85
2021/10/10 11:23:33;;;;;;;9.35;6.53;;;19.70;91.80;;;;;;4911216;28;20051;-85
2021/10/10 11:26:08;;;;;;;8.70;6.50;;;20.50;86.80;;;;;;4901333;28;20029;-85
2021/10/10 11:28:34;;;;;;;13.98;6.88;;;20.70;86.10;;;;;;4908129;28;20080;-85
2021/10/10 11:31:18;;;;;;;10.52;6.75;;;20.50;87.40;;;;;;4949182;28;20050;-85
2021/10/10 11:33:46;;;;;;;8.50;5.78;;;20.40;87.70;;;;;;4911068;28;20130;-84
2021/10/10 11:36:12;;;;;;;9.10;6.63;;;20.30;90.20;;;;;;4932682;28;20041;-84
2021/10/10 11:38:48;;;;;;;13.10;8.27;;;20.20;87.50;;;;;;4900723;28;20035;-84
2021/10/10 11:41:14;;;;;;;9.60;6.65;;;20.30;88.10;;;;;;4898731;29;20032;-84
2021/10/10 11:44:13;;;;;;;10.35;6.05;;;20.60;89.00;;;;;;4930416;28;20039;-84
2021/10/10 11:46:42;;;;;;;13.18;8.02;;;20.20;88.70;;;;;;4900341;28;20430;-84
2021/10/10 11:49:31;;;;;;;11.73;7.03;;;19.40;94.90;;;;;;4945763;28;20028;-85
2021/10/10 11:52:25;;;;;;;10.45;7.38;;;19.30;91.40;;;;;;4943580;28;20532;-84
2021/10/10 11:55:01;;;;;;;9.52;6.93;;;19.20;94.30;;;;;;4921550;28;20037;-84
2021/10/10 11:57:27;;;;;;;8.23;6.22;;;19.30;91.80;;;;;;4907954;28;20591;-84
2021/10/10 11:59:54;;;;;;;9.20;6.28;;;19.40;91.60;;;;;;4929740;28;20046;-86
2021/10/10 12:02:20;;;;;;;7.85;6.07;;;19.60;91.10;;;;;;4929949;28;20035;-85
2021/10/10 12:04:49;;;;;;;10.10;7.28;;;19.40;91.70;;;;;;4938724;28;20032;-85
2021/10/10 12:07:14;;;;;;;13.68;7.93;;;20.00;90.20;;;;;;4908854;29;20035;-84
2021/10/10 12:09:50;;;;;;;8.95;6.45;;;20.00;90.00;;;;;;4932458;28;20040;-85
2021/10/10 12:12:16;;;;;;;;;;;20.30;88.70;;;;;;4910696;28;20056;-84
2021/10/10 12:14:52;;;;;;;11.82;5.95;;;20.30;90.40;;;;;;4965237;28;19945;-85
2021/10/10 12:17:36;;;;;;;9.02;6.32;;;20.60;87.60;;;;;;4911695;28;20052;-85
2021/10/10 12:20:17;;;;;;;7.43;6.10;;;20.60;88.00;;;;;;4930755;28;20066;-84
2021/10/10 12:23:06;;;;;;;17.50;9.15;;;20.80;88.30;;;;;;4949827;28;20031;-85
2021/10/10 12:25:39;;;;;;;10.45;6.55;;;19.80;91.60;;;;;;4930865;28;20056;-85
2021/10/10 12:28:13;;;;;;;10.23;7.57;;;19.90;90.40;;;;;;4921822;28;20032;-85
2021/10/10 12:31:12;;;;;;;12.90;8.80;;;20.70;88.20;;;;;;4909490;28;20091;-85
2021/10/10 12:33:40;;;;;;;9.38;5.85;;;19.50;91.20;;;;;;4909013;28;20040;-85
2021/10/10 12:36:14;;;;;;;13.05;7.70;;;20.90;87.70;;;;;;4926459;28;20025;-85
2021/10/10 12:38:46;;;;;;;11.57;7.55;;;21.20;88.60;;;;;;4933886;28;20059;-85
2021/10/10 12:41:21;;;;;;;11.25;6.95;;;20.10;90.00;;;;;;4924176;28;20032;-85
2021/10/10 12:43:55;;;;;;;12.13;6.53;;;21.10;86.00;;;;;;4920146;28;20379;-85
2021/10/10 12:46:21;;;;;;;7.72;6.38;;;21.20;86.40;;;;;;4929431;28;20352;-84
2021/10/10 12:49:01;;;;;;;10.52;6.30;;;21.10;86.60;;;;;;4906205;28;20083;-85